sensor_id;sensor_type;location;lat;lon;timestamp;P1;durP1;ratioP1;P2;durP2;ratioP2
51366;SDS011;37458;49.428;8.646;2023-03-14T08:22:20;2.40;;;0.90;;
51366;SDS011;37458;49.428;8.646;2023-03-14T08:24:46;3.53;;;1.20;;
51366;SDS011;37458;49.428;8.646;2023-03-14T08:27:12;2.23;;;0.80;;
51366;SDS011;37458;49.428;8.646;2023-03-14T08:29:39;1.13;;;1.00;;
51366;SDS011;37458;49.428;8.646;2023-03-14T08:32:06;4.93;;;1.33;;
51366;SDS011;37458;49.428;8.646;2023-03-14T08:34:33;3.13;;;1.07;;
51366;SDS011;37458;49.428;8.646;2023-03-14T08:36:59;3.37;;;1.10;;
51366;SDS011;37458;49.428;8.646;2023-03-14T08:39:25;2.47;;;0.97;;
51366;SDS011;37458;49.428;8.646;2023-03-14T08:41:51;1.67;;;1.00;;
51366;SDS011;37458;49.428;8.646;2023-03-14T08:44:17;1.33;;;1.00;;
51366;SDS011;37458;49.428;8.646;2023-03-14T08:46:42;2.63;;;1.00;;
51366;SDS011;37458;49.428;8.646;2023-03-14T08:49:08;1.23;;;0.90;;
51366;SDS011;37458;49.428;8.646;2023-03-14T08:51:34;1.13;;;0.90;;
51366;SDS011;37458;49.428;8.646;2023-03-14T08:54:00;1.13;;;1.00;;
51366;SDS011;37458;49.428;8.646;2023-03-14T08:56:26;1.10;;;1.00;;
51366;SDS011;37458;49.428;8.646;2023-03-14T08:58:52;2.57;;;1.03;;
51366;SDS011;37458;49.428;8.646;2023-03-14T09:01:18;3.03;;;1.00;;
51366;SDS011;37458;49.428;8.646;2023-03-14T09:03:45;1.47;;;0.97;;
51366;SDS011;37458;49.428;8.646;2023-03-14T09:06:13;1.30;;;0.90;;
51366;SDS011;37458;49.428;8.646;2023-03-14T09:08:39;1.67;;;1.00;;
51366;SDS011;37458;49.428;8.646;2023-03-14T09:11:08;0.93;;;0.90;;
51366;SDS011;37458;49.428;8.646;2023-03-14T09:13:34;1.30;;;1.00;;
51366;SDS011;37458;49.428;8.646;2023-03-14T09:16:00;1.10;;;0.93;;
51366;SDS011;37458;49.428;8.646;2023-03-14T09:18:26;1.23;;;1.13;;
51366;SDS011;37458;49.428;8.646;2023-03-14T09:20:53;0.90;;;0.90;;
51366;SDS011;37458;49.428;8.646;2023-03-14T09:23:20;2.47;;;0.83;;
51366;SDS011;37458;49.428;8.646;2023-03-14T09:25:46;1.90;;;1.17;;
51366;SDS011;37458;49.428;8.646;2023-03-14T09:28:12;1.07;;;1.03;;
51366;SDS011;37458;49.428;8.646;2023-03-14T09:30:38;1.03;;;0.93;;
51366;SDS011;37458;49.428;8.646;2023-03-14T09:33:04;1.80;;;1.00;;
51366;SDS011;37458;49.428;8.646;2023-03-14T09:35:30;1.13;;;0.90;;
51366;SDS011;37458;49.428;8.646;2023-03-14T09:37:56;1.10;;;0.83;;
51366;SDS011;37458;49.428;8.646;2023-03-14T09:40:22;1.53;;;0.90;;
51366;SDS011;37458;49.428;8.646;2023-03-14T09:42:52;1.30;;;0.90;;
51366;SDS011;37458;49.428;8.646;2023-03-14T09:47:51;0.90;;;0.90;;
51366;SDS011;37458;49.428;8.646;2023-03-14T09:50:17;0.67;;;0.67;;
51366;SDS011;37458;49.428;8.646;2023-03-14T09:52:45;2.20;;;0.90;;
51366;SDS011;37458;49.428;8.646;2023-03-14T09:55:19;2.30;;;1.03;;
51366;SDS011;37458;49.428;8.646;2023-03-14T09:57:46;0.97;;;0.93;;
51366;SDS011;37458;49.428;8.646;2023-03-14T10:00:20;0.80;;;0.80;;
51366;SDS011;37458;49.428;8.646;2023-03-14T10:02:59;1.53;;;1.00;;
51366;SDS011;37458;49.428;8.646;2023-03-14T10:05:27;0.90;;;0.90;;
51366;SDS011;37458;49.428;8.646;2023-03-14T10:07:54;1.13;;;1.03;;
51366;SDS011;37458;49.428;8.646;2023-03-14T10:10:24;1.30;;;0.80;;
51366;SDS011;37458;49.428;8.646;2023-03-14T10:12:57;0.80;;;0.80;;
51366;SDS011;37458;49.428;8.646;2023-03-14T10:15:25;1.17;;;0.83;;
51366;SDS011;37458;49.428;8.646;2023-03-14T10:17:51;1.00;;;0.90;;
51366;SDS011;37458;49.428;8.646;2023-03-14T10:20:34;0.80;;;0.80;;
51366;SDS011;37458;49.428;8.646;2023-03-14T10:23:00;1.10;;;1.00;;
51366;SDS011;37458;49.428;8.646;2023-03-14T10:25:31;1.17;;;1.07;;
51366;SDS011;37458;49.428;8.646;2023-03-14T10:27:58;0.80;;;0.80;;
51366;SDS011;37458;49.428;8.646;2023-03-14T10:30:29;2.20;;;1.00;;
51366;SDS011;37458;49.428;8.646;2023-03-14T10:32:56;5.13;;;1.10;;
51366;SDS011;37458;49.428;8.646;2023-03-14T10:35:22;0.80;;;0.80;;
51366;SDS011;37458;49.428;8.646;2023-03-14T10:38:01;0.97;;;0.97;;
51366;SDS011;37458;49.428;8.646;2023-03-14T10:40:32;0.90;;;0.90;;
51366;SDS011;37458;49.428;8.646;2023-03-14T10:42:59;0.67;;;0.67;;
51366;SDS011;37458;49.428;8.646;2023-03-14T10:45:28;1.00;;;0.90;;
51366;SDS011;37458;49.428;8.646;2023-03-14T10:47:55;1.10;;;1.00;;
51366;SDS011;37458;49.428;8.646;2023-03-14T10:50:27;0.80;;;0.80;;
51366;SDS011;37458;49.428;8.646;2023-03-14T10:52:55;1.10;;;1.00;;
51366;SDS011;37458;49.428;8.646;2023-03-14T10:55:22;1.87;;;1.30;;
51366;SDS011;37458;49.428;8.646;2023-03-14T10:57:49;1.63;;;1.00;;
51366;SDS011;37458;49.428;8.646;2023-03-14T11:00:19;1.07;;;0.97;;
51366;SDS011;37458;49.428;8.646;2023-03-14T11:05:15;0.80;;;0.80;;
51366;SDS011;37458;49.428;8.646;2023-03-14T11:07:45;1.20;;;1.10;;
51366;SDS011;37458;49.428;8.646;2023-03-14T11:10:14;0.70;;;0.70;;
51366;SDS011;37458;49.428;8.646;2023-03-14T11:23:06;0.90;;;0.90;;
51366;SDS011;37458;49.428;8.646;2023-03-14T11:33:44;3.40;;;0.93;;
51366;SDS011;37458;49.428;8.646;2023-03-14T11:36:14;1.93;;;1.00;;
51366;SDS011;37458;49.428;8.646;2023-03-14T11:38:50;3.60;;;0.87;;
51366;SDS011;37458;49.428;8.646;2023-03-14T11:41:19;1.10;;;1.00;;
51366;SDS011;37458;49.428;8.646;2023-03-14T11:43:52;1.00;;;0.90;;
51366;SDS011;37458;49.428;8.646;2023-03-14T11:46:25;0.83;;;0.83;;
51366;SDS011;37458;49.428;8.646;2023-03-14T11:48:57;1.63;;;1.10;;
51366;SDS011;37458;49.428;8.646;2023-03-14T11:51:44;1.67;;;1.00;;
51366;SDS011;37458;49.428;8.646;2023-03-14T11:54:16;0.80;;;0.80;;
51366;SDS011;37458;49.428;8.646;2023-03-14T11:56:46;1.30;;;1.20;;
51366;SDS011;37458;49.428;8.646;2023-03-14T11:59:18;1.00;;;1.00;;
51366;SDS011;37458;49.428;8.646;2023-03-14T12:01:52;1.40;;;1.30;;
51366;SDS011;37458;49.428;8.646;2023-03-14T12:04:30;1.20;;;1.10;;
51366;SDS011;37458;49.428;8.646;2023-03-14T12:06:58;2.87;;;0.90;;
51366;SDS011;37458;49.428;8.646;2023-03-14T12:09:27;0.93;;;0.90;;
51366;SDS011;37458;49.428;8.646;2023-03-14T12:11:57;2.30;;;0.83;;
51366;SDS011;37458;49.428;8.646;2023-03-14T12:14:26;0.67;;;0.67;;
51366;SDS011;37458;49.428;8.646;2023-03-14T12:16:53;0.90;;;0.90;;
51366;SDS011;37458;49.428;8.646;2023-03-14T12:21:49;1.30;;;1.20;;
51366;SDS011;37458;49.428;8.646;2023-03-14T12:24:20;0.83;;;0.83;;
51366;SDS011;37458;49.428;8.646;2023-03-14T12:26:59;0.97;;;0.97;;
51366;SDS011;37458;49.428;8.646;2023-03-14T12:29:25;0.70;;;0.70;;
51366;SDS011;37458;49.428;8.646;2023-03-14T12:34:28;1.40;;;0.80;;
51366;SDS011;37458;49.428;8.646;2023-03-14T12:36:56;0.80;;;0.80;;
51366;SDS011;37458;49.428;8.646;2023-03-14T12:42:00;0.77;;;0.70;;
51366;SDS011;37458;49.428;8.646;2023-03-14T12:46:59;2.37;;;1.50;;
51366;SDS011;37458;49.428;8.646;2023-03-14T12:49:29;1.10;;;1.00;;
51366;SDS011;37458;49.428;8.646;2023-03-14T12:52:02;1.77;;;1.10;;
51366;SDS011;37458;49.428;8.646;2023-03-14T12:54:43;1.57;;;0.87;;
51366;SDS011;37458;49.428;8.646;2023-03-14T12:59:46;2.00;;;1.00;;
51366;SDS011;37458;49.428;8.646;2023-03-14T13:07:28;1.27;;;1.10;;
51366;SDS011;37458;49.428;8.646;2023-03-14T13:09:55;1.20;;;1.00;;
51366;SDS011;37458;49.428;8.646;2023-03-14T13:12:27;1.40;;;1.30;;
51366;SDS011;37458;49.428;8.646;2023-03-14T13:14:57;1.60;;;1.20;;
51366;SDS011;37458;49.428;8.646;2023-03-14T13:17:26;2.03;;;1.83;;
51366;SDS011;37458;49.428;8.646;2023-03-14T13:19:53;1.10;;;1.00;;
51366;SDS011;37458;49.428;8.646;2023-03-14T13:22:31;2.00;;;1.43;;
51366;SDS011;37458;49.428;8.646;2023-03-14T13:25:10;1.10;;;1.00;;
51366;SDS011;37458;49.428;8.646;2023-03-14T13:27:36;2.00;;;1.17;;
51366;SDS011;37458;49.428;8.646;2023-03-14T13:30:12;3.23;;;1.27;;
51366;SDS011;37458;49.428;8.646;2023-03-14T13:32:41;1.17;;;1.10;;
51366;SDS011;37458;49.428;8.646;2023-03-14T13:35:17;1.37;;;1.10;;
51366;SDS011;37458;49.428;8.646;2023-03-14T13:37:44;1.63;;;1.00;;
51366;SDS011;37458;49.428;8.646;2023-03-14T13:40:20;3.03;;;1.20;;
51366;SDS011;37458;49.428;8.646;2023-03-14T13:42:46;2.90;;;1.43;;
51366;SDS011;37458;49.428;8.646;2023-03-14T13:45:13;1.63;;;1.20;;
51366;SDS011;37458;49.428;8.646;2023-03-14T13:47:39;1.37;;;1.20;;
51366;SDS011;37458;49.428;8.646;2023-03-14T13:50:11;1.40;;;1.30;;
51366;SDS011;37458;49.428;8.646;2023-03-14T13:52:38;1.27;;;1.13;;
51366;SDS011;37458;49.428;8.646;2023-03-14T13:55:05;1.87;;;1.20;;
51366;SDS011;37458;49.428;8.646;2023-03-14T13:57:44;1.77;;;1.23;;
51366;SDS011;37458;49.428;8.646;2023-03-14T14:00:18;2.77;;;1.30;;
51366;SDS011;37458;49.428;8.646;2023-03-14T14:02:44;1.37;;;1.03;;
51366;SDS011;37458;49.428;8.646;2023-03-14T14:05:10;2.23;;;1.30;;
51366;SDS011;37458;49.428;8.646;2023-03-14T14:07:37;2.87;;;1.20;;
51366;SDS011;37458;49.428;8.646;2023-03-14T14:10:03;0.73;;;0.73;;
51366;SDS011;37458;49.428;8.646;2023-03-14T14:12:30;3.07;;;1.20;;
51366;SDS011;37458;49.428;8.646;2023-03-14T14:19:58;1.53;;;1.10;;
51366;SDS011;37458;49.428;8.646;2023-03-14T14:22:24;1.47;;;1.00;;
51366;SDS011;37458;49.428;8.646;2023-03-14T14:24:50;6.63;;;1.00;;
51366;SDS011;37458;49.428;8.646;2023-03-14T14:27:18;1.20;;;1.10;;
51366;SDS011;37458;49.428;8.646;2023-03-14T14:30:53;1.20;;;1.00;;
51366;SDS011;37458;49.428;8.646;2023-03-14T14:32:49;2.17;;;1.00;;
51366;SDS011;37458;49.428;8.646;2023-03-14T14:35:31;1.63;;;1.00;;
51366;SDS011;37458;49.428;8.646;2023-03-14T14:37:58;1.20;;;1.00;;
51366;SDS011;37458;49.428;8.646;2023-03-14T14:40:26;1.17;;;1.00;;
51366;SDS011;37458;49.428;8.646;2023-03-14T14:42:52;2.80;;;1.10;;
51366;SDS011;37458;49.428;8.646;2023-03-14T14:45:19;1.30;;;1.10;;
51366;SDS011;37458;49.428;8.646;2023-03-14T14:47:53;1.30;;;1.20;;
51366;SDS011;37458;49.428;8.646;2023-03-14T14:50:29;2.77;;;1.20;;
51366;SDS011;37458;49.428;8.646;2023-03-14T14:53:00;1.47;;;0.90;;
51366;SDS011;37458;49.428;8.646;2023-03-14T14:55:31;1.40;;;1.00;;
51366;SDS011;37458;49.428;8.646;2023-03-14T14:57:58;1.73;;;0.90;;
51366;SDS011;37458;49.428;8.646;2023-03-14T15:00:39;2.10;;;1.17;;
51366;SDS011;37458;49.428;8.646;2023-03-14T15:03:05;1.63;;;0.90;;
51366;SDS011;37458;49.428;8.646;2023-03-14T15:05:31;2.40;;;1.20;;
51366;SDS011;37458;49.428;8.646;2023-03-14T15:08:00;2.50;;;1.10;;
51366;SDS011;37458;49.428;8.646;2023-03-14T15:10:26;2.03;;;1.03;;
51366;SDS011;37458;49.428;8.646;2023-03-14T15:12:53;1.47;;;0.90;;
51366;SDS011;37458;49.428;8.646;2023-03-14T15:15:19;2.50;;;0.97;;
51366;SDS011;37458;49.428;8.646;2023-03-14T15:17:45;5.57;;;1.30;;
51366;SDS011;37458;49.428;8.646;2023-03-14T15:20:12;2.10;;;1.03;;
51366;SDS011;37458;49.428;8.646;2023-03-14T15:22:39;4.37;;;1.37;;
51366;SDS011;37458;49.428;8.646;2023-03-14T15:25:05;4.57;;;1.30;;
51366;SDS011;37458;49.428;8.646;2023-03-14T15:27:33;1.77;;;1.03;;
51366;SDS011;37458;49.428;8.646;2023-03-14T15:29:59;1.83;;;1.10;;
51366;SDS011;37458;49.428;8.646;2023-03-14T15:32:26;1.50;;;1.13;;
51366;SDS011;37458;49.428;8.646;2023-03-14T15:34:52;4.63;;;1.47;;
51366;SDS011;37458;49.428;8.646;2023-03-14T15:37:18;1.17;;;1.00;;
51366;SDS011;37458;49.428;8.646;2023-03-14T15:39:44;2.53;;;1.50;;
51366;SDS011;37458;49.428;8.646;2023-03-14T15:42:10;1.97;;;1.00;;
51366;SDS011;37458;49.428;8.646;2023-03-14T15:44:36;2.37;;;0.93;;
51366;SDS011;37458;49.428;8.646;2023-03-14T15:47:04;1.47;;;1.00;;
51366;SDS011;37458;49.428;8.646;2023-03-14T15:49:30;0.90;;;0.80;;
51366;SDS011;37458;49.428;8.646;2023-03-14T15:51:56;1.50;;;0.90;;
51366;SDS011;37458;49.428;8.646;2023-03-14T15:54:22;1.60;;;1.00;;
51366;SDS011;37458;49.428;8.646;2023-03-14T15:56:48;2.60;;;0.97;;
51366;SDS011;37458;49.428;8.646;2023-03-14T15:59:16;2.23;;;1.20;;
51366;SDS011;37458;49.428;8.646;2023-03-14T16:01:42;4.37;;;1.27;;
51366;SDS011;37458;49.428;8.646;2023-03-14T16:04:08;3.10;;;1.10;;
51366;SDS011;37458;49.428;8.646;2023-03-14T16:06:34;1.07;;;0.90;;
51366;SDS011;37458;49.428;8.646;2023-03-14T16:09:01;2.03;;;1.10;;
51366;SDS011;37458;49.428;8.646;2023-03-14T16:11:27;2.83;;;0.90;;
51366;SDS011;37458;49.428;8.646;2023-03-14T16:13:53;3.03;;;1.10;;
51366;SDS011;37458;49.428;8.646;2023-03-14T16:16:19;2.57;;;1.10;;
51366;SDS011;37458;49.428;8.646;2023-03-14T16:18:45;2.17;;;1.00;;
51366;SDS011;37458;49.428;8.646;2023-03-14T16:21:12;1.13;;;1.00;;
51366;SDS011;37458;49.428;8.646;2023-03-14T16:23:38;2.03;;;1.20;;
51366;SDS011;37458;49.428;8.646;2023-03-14T16:26:08;3.87;;;1.40;;
51366;SDS011;37458;49.428;8.646;2023-03-14T16:28:34;1.93;;;1.10;;
51366;SDS011;37458;49.428;8.646;2023-03-14T16:31:01;1.63;;;1.10;;
51366;SDS011;37458;49.428;8.646;2023-03-14T16:33:28;1.10;;;1.00;;
51366;SDS011;37458;49.428;8.646;2023-03-14T16:35:57;2.07;;;1.17;;
51366;SDS011;37458;49.428;8.646;2023-03-14T16:38:29;2.50;;;1.10;;
51366;SDS011;37458;49.428;8.646;2023-03-14T16:40:57;2.03;;;1.10;;
51366;SDS011;37458;49.428;8.646;2023-03-14T16:43:23;1.87;;;1.30;;
51366;SDS011;37458;49.428;8.646;2023-03-14T16:45:49;3.57;;;1.20;;
51366;SDS011;37458;49.428;8.646;2023-03-14T16:48:15;2.03;;;1.20;;
51366;SDS011;37458;49.428;8.646;2023-03-14T16:50:41;2.53;;;1.10;;
51366;SDS011;37458;49.428;8.646;2023-03-14T16:53:07;1.87;;;1.13;;
51366;SDS011;37458;49.428;8.646;2023-03-14T16:55:34;2.40;;;1.17;;
51366;SDS011;37458;49.428;8.646;2023-03-14T16:58:00;2.30;;;1.30;;
51366;SDS011;37458;49.428;8.646;2023-03-14T17:00:26;3.83;;;1.30;;
51366;SDS011;37458;49.428;8.646;2023-03-14T17:02:52;4.97;;;1.27;;
51366;SDS011;37458;49.428;8.646;2023-03-14T17:05:18;2.70;;;1.30;;
51366;SDS011;37458;49.428;8.646;2023-03-14T17:07:44;2.33;;;1.27;;
51366;SDS011;37458;49.428;8.646;2023-03-14T17:10:10;2.10;;;1.10;;
51366;SDS011;37458;49.428;8.646;2023-03-14T17:12:36;3.43;;;1.30;;
51366;SDS011;37458;49.428;8.646;2023-03-14T17:15:02;4.37;;;1.23;;
51366;SDS011;37458;49.428;8.646;2023-03-14T17:17:28;6.00;;;1.40;;
51366;SDS011;37458;49.428;8.646;2023-03-14T17:19:54;3.10;;;1.30;;
51366;SDS011;37458;49.428;8.646;2023-03-14T17:22:20;3.73;;;1.43;;
51366;SDS011;37458;49.428;8.646;2023-03-14T17:24:46;2.83;;;1.50;;
51366;SDS011;37458;49.428;8.646;2023-03-14T17:27:14;3.53;;;1.43;;
51366;SDS011;37458;49.428;8.646;2023-03-14T17:29:44;3.33;;;1.33;;
51366;SDS011;37458;49.428;8.646;2023-03-14T17:32:10;2.70;;;1.10;;
51366;SDS011;37458;49.428;8.646;2023-03-14T17:34:37;3.70;;;1.23;;
51366;SDS011;37458;49.428;8.646;2023-03-14T17:37:03;2.63;;;1.30;;
51366;SDS011;37458;49.428;8.646;2023-03-14T17:39:28;3.57;;;1.40;;
51366;SDS011;37458;49.428;8.646;2023-03-14T17:41:54;4.87;;;1.67;;
51366;SDS011;37458;49.428;8.646;2023-03-14T17:44:20;5.57;;;1.67;;
51366;SDS011;37458;49.428;8.646;2023-03-14T17:46:47;3.73;;;1.50;;
51366;SDS011;37458;49.428;8.646;2023-03-14T17:49:13;4.23;;;1.40;;
51366;SDS011;37458;49.428;8.646;2023-03-14T17:51:39;3.07;;;1.20;;
51366;SDS011;37458;49.428;8.646;2023-03-14T17:54:05;3.10;;;1.43;;
51366;SDS011;37458;49.428;8.646;2023-03-14T17:56:31;3.97;;;1.30;;
51366;SDS011;37458;49.428;8.646;2023-03-14T17:58:57;6.37;;;1.30;;
51366;SDS011;37458;49.428;8.646;2023-03-14T18:01:24;4.60;;;1.70;;
51366;SDS011;37458;49.428;8.646;2023-03-14T18:03:51;2.87;;;1.20;;
51366;SDS011;37458;49.428;8.646;2023-03-14T18:06:20;5.40;;;1.50;;
51366;SDS011;37458;49.428;8.646;2023-03-14T18:08:47;3.90;;;1.50;;
51366;SDS011;37458;49.428;8.646;2023-03-14T18:11:14;5.10;;;1.67;;
51366;SDS011;37458;49.428;8.646;2023-03-14T18:13:40;5.97;;;1.73;;
51366;SDS011;37458;49.428;8.646;2023-03-14T18:16:07;15.20;;;8.03;;
51366;SDS011;37458;49.428;8.646;2023-03-14T18:18:33;7.63;;;3.03;;
51366;SDS011;37458;49.428;8.646;2023-03-14T18:20:59;9.57;;;2.27;;
51366;SDS011;37458;49.428;8.646;2023-03-14T18:23:25;5.93;;;1.57;;
51366;SDS011;37458;49.428;8.646;2023-03-14T18:25:51;3.90;;;1.50;;
51366;SDS011;37458;49.428;8.646;2023-03-14T18:28:17;3.87;;;1.50;;
51366;SDS011;37458;49.428;8.646;2023-03-14T18:30:45;5.53;;;1.47;;
51366;SDS011;37458;49.428;8.646;2023-03-14T18:33:16;3.13;;;1.60;;
51366;SDS011;37458;49.428;8.646;2023-03-14T18:35:42;2.80;;;1.40;;
51366;SDS011;37458;49.428;8.646;2023-03-14T18:38:08;2.30;;;1.30;;
51366;SDS011;37458;49.428;8.646;2023-03-14T18:40:34;3.33;;;1.50;;
51366;SDS011;37458;49.428;8.646;2023-03-14T18:43:00;7.60;;;1.77;;
51366;SDS011;37458;49.428;8.646;2023-03-14T18:45:29;5.10;;;1.50;;
51366;SDS011;37458;49.428;8.646;2023-03-14T18:47:55;6.77;;;1.90;;
51366;SDS011;37458;49.428;8.646;2023-03-14T18:50:21;3.03;;;1.30;;
51366;SDS011;37458;49.428;8.646;2023-03-14T18:52:47;5.90;;;1.80;;
51366;SDS011;37458;49.428;8.646;2023-03-14T18:55:13;2.27;;;1.47;;
51366;SDS011;37458;49.428;8.646;2023-03-14T18:57:39;2.87;;;1.30;;
51366;SDS011;37458;49.428;8.646;2023-03-14T19:00:06;6.33;;;2.40;;
51366;SDS011;37458;49.428;8.646;2023-03-14T19:02:34;3.40;;;1.70;;
51366;SDS011;37458;49.428;8.646;2023-03-14T19:05:00;3.23;;;1.60;;
51366;SDS011;37458;49.428;8.646;2023-03-14T19:07:26;2.63;;;1.40;;
51366;SDS011;37458;49.428;8.646;2023-03-14T19:09:52;2.73;;;1.70;;
51366;SDS011;37458;49.428;8.646;2023-03-14T19:12:18;6.83;;;1.70;;
51366;SDS011;37458;49.428;8.646;2023-03-14T19:14:44;3.13;;;1.63;;
51366;SDS011;37458;49.428;8.646;2023-03-14T19:17:13;6.70;;;1.63;;
51366;SDS011;37458;49.428;8.646;2023-03-14T19:19:39;3.43;;;1.40;;
51366;SDS011;37458;49.428;8.646;2023-03-14T19:22:05;3.60;;;1.77;;
51366;SDS011;37458;49.428;8.646;2023-03-14T19:24:31;3.73;;;1.60;;
51366;SDS011;37458;49.428;8.646;2023-03-14T19:26:58;6.27;;;1.70;;
51366;SDS011;37458;49.428;8.646;2023-03-14T19:29:24;3.67;;;1.57;;
51366;SDS011;37458;49.428;8.646;2023-03-14T19:31:50;4.90;;;1.67;;
51366;SDS011;37458;49.428;8.646;2023-03-14T19:34:18;1.73;;;1.30;;
51366;SDS011;37458;49.428;8.646;2023-03-14T19:36:45;2.17;;;1.10;;
51366;SDS011;37458;49.428;8.646;2023-03-14T19:39:11;1.53;;;1.20;;
51366;SDS011;37458;49.428;8.646;2023-03-14T19:41:37;2.50;;;1.07;;
51366;SDS011;37458;49.428;8.646;2023-03-14T19:44:03;1.30;;;1.07;;
51366;SDS011;37458;49.428;8.646;2023-03-14T19:46:29;2.43;;;1.20;;
51366;SDS011;37458;49.428;8.646;2023-03-14T19:48:57;2.00;;;0.90;;
51366;SDS011;37458;49.428;8.646;2023-03-14T19:51:23;0.83;;;0.83;;
51366;SDS011;37458;49.428;8.646;2023-03-14T19:53:50;0.87;;;0.87;;
51366;SDS011;37458;49.428;8.646;2023-03-14T19:56:16;2.83;;;2.63;;
51366;SDS011;37458;49.428;8.646;2023-03-14T19:58:48;1.00;;;0.90;;
51366;SDS011;37458;49.428;8.646;2023-03-14T20:01:14;1.00;;;1.00;;
51366;SDS011;37458;49.428;8.646;2023-03-14T20:03:40;0.87;;;0.87;;
51366;SDS011;37458;49.428;8.646;2023-03-14T20:06:07;0.90;;;0.90;;
51366;SDS011;37458;49.428;8.646;2023-03-14T20:08:33;1.17;;;1.07;;
51366;SDS011;37458;49.428;8.646;2023-03-14T20:11:01;0.90;;;0.90;;
51366;SDS011;37458;49.428;8.646;2023-03-14T20:13:27;1.07;;;1.03;;
51366;SDS011;37458;49.428;8.646;2023-03-14T20:15:54;1.20;;;1.07;;
51366;SDS011;37458;49.428;8.646;2023-03-14T20:18:23;1.97;;;1.00;;
51366;SDS011;37458;49.428;8.646;2023-03-14T20:20:49;1.37;;;1.10;;
51366;SDS011;37458;49.428;8.646;2023-03-14T20:23:15;3.43;;;1.07;;
51366;SDS011;37458;49.428;8.646;2023-03-14T20:25:41;3.60;;;1.40;;
51366;SDS011;37458;49.428;8.646;2023-03-14T20:28:07;1.67;;;1.30;;
51366;SDS011;37458;49.428;8.646;2023-03-14T20:30:33;2.83;;;1.47;;
51366;SDS011;37458;49.428;8.646;2023-03-14T20:32:59;1.40;;;1.30;;
51366;SDS011;37458;49.428;8.646;2023-03-14T20:35:28;2.93;;;1.67;;
51366;SDS011;37458;49.428;8.646;2023-03-14T20:37:54;4.33;;;1.90;;
51366;SDS011;37458;49.428;8.646;2023-03-14T20:40:21;7.77;;;1.87;;
51366;SDS011;37458;49.428;8.646;2023-03-14T20:42:48;3.53;;;1.67;;
51366;SDS011;37458;49.428;8.646;2023-03-14T20:45:14;2.60;;;1.77;;
51366;SDS011;37458;49.428;8.646;2023-03-14T20:47:40;5.27;;;2.20;;
51366;SDS011;37458;49.428;8.646;2023-03-14T20:50:06;6.50;;;2.37;;
51366;SDS011;37458;49.428;8.646;2023-03-14T20:52:33;3.73;;;2.00;;
51366;SDS011;37458;49.428;8.646;2023-03-14T20:54:59;7.23;;;2.20;;
51366;SDS011;37458;49.428;8.646;2023-03-14T20:57:25;3.70;;;2.07;;
51366;SDS011;37458;49.428;8.646;2023-03-14T20:59:51;4.23;;;2.07;;
51366;SDS011;37458;49.428;8.646;2023-03-14T21:02:17;3.63;;;2.10;;
51366;SDS011;37458;49.428;8.646;2023-03-14T21:04:43;7.30;;;2.30;;
51366;SDS011;37458;49.428;8.646;2023-03-14T21:07:09;2.80;;;2.10;;
51366;SDS011;37458;49.428;8.646;2023-03-14T21:09:36;3.70;;;2.17;;
51366;SDS011;37458;49.428;8.646;2023-03-14T21:12:02;4.80;;;2.30;;
51366;SDS011;37458;49.428;8.646;2023-03-14T21:14:28;4.13;;;2.33;;
51366;SDS011;37458;49.428;8.646;2023-03-14T21:16:54;5.17;;;2.27;;
51366;SDS011;37458;49.428;8.646;2023-03-14T21:19:22;2.77;;;2.37;;
51366;SDS011;37458;49.428;8.646;2023-03-14T21:21:55;5.17;;;2.40;;
51366;SDS011;37458;49.428;8.646;2023-03-14T21:24:22;4.37;;;2.10;;
51366;SDS011;37458;49.428;8.646;2023-03-14T21:26:49;10.33;;;2.03;;
51366;SDS011;37458;49.428;8.646;2023-03-14T21:29:15;5.27;;;2.10;;
51366;SDS011;37458;49.428;8.646;2023-03-14T21:31:41;6.30;;;2.77;;
51366;SDS011;37458;49.428;8.646;2023-03-14T21:34:07;5.20;;;2.17;;
51366;SDS011;37458;49.428;8.646;2023-03-14T21:36:33;5.47;;;2.00;;
51366;SDS011;37458;49.428;8.646;2023-03-14T21:38:59;5.07;;;2.20;;
51366;SDS011;37458;49.428;8.646;2023-03-14T21:41:25;4.93;;;2.03;;
51366;SDS011;37458;49.428;8.646;2023-03-14T21:43:54;4.90;;;2.30;;
51366;SDS011;37458;49.428;8.646;2023-03-14T21:46:20;7.63;;;2.10;;
51366;SDS011;37458;49.428;8.646;2023-03-14T21:48:49;5.43;;;2.10;;
51366;SDS011;37458;49.428;8.646;2023-03-14T21:51:15;5.20;;;2.00;;
51366;SDS011;37458;49.428;8.646;2023-03-14T21:53:41;3.83;;;2.00;;
51366;SDS011;37458;49.428;8.646;2023-03-14T21:56:09;5.73;;;1.90;;
51366;SDS011;37458;49.428;8.646;2023-03-14T21:58:35;5.03;;;2.00;;
51366;SDS011;37458;49.428;8.646;2023-03-14T22:01:02;5.30;;;2.17;;
51366;SDS011;37458;49.428;8.646;2023-03-14T22:03:30;5.23;;;1.87;;
51366;SDS011;37458;49.428;8.646;2023-03-14T22:05:58;5.00;;;1.80;;
51366;SDS011;37458;49.428;8.646;2023-03-14T22:08:24;4.77;;;2.17;;
51366;SDS011;37458;49.428;8.646;2023-03-14T22:10:51;5.67;;;2.20;;
51366;SDS011;37458;49.428;8.646;2023-03-14T22:13:17;3.47;;;2.10;;
51366;SDS011;37458;49.428;8.646;2023-03-14T22:15:44;4.00;;;2.17;;
51366;SDS011;37458;49.428;8.646;2023-03-14T22:18:10;4.67;;;1.77;;
51366;SDS011;37458;49.428;8.646;2023-03-14T22:20:36;6.57;;;2.07;;
51366;SDS011;37458;49.428;8.646;2023-03-14T22:23:02;4.90;;;2.07;;
51366;SDS011;37458;49.428;8.646;2023-03-14T22:25:28;5.47;;;2.50;;
51366;SDS011;37458;49.428;8.646;2023-03-14T22:27:54;5.50;;;2.57;;
51366;SDS011;37458;49.428;8.646;2023-03-14T22:30:20;5.47;;;2.10;;
51366;SDS011;37458;49.428;8.646;2023-03-14T22:32:46;5.60;;;2.13;;
